Time;durP1;ratioP1;P1;durP2;ratioP2;P2;SDS_P1;SDS_P2;PMS_P1;PMS_P2;Temp;Humidity;BMP_temperature;BMP_pressure;BME280_temperature;BME280_humidity;BME280_pressure;Samples;Min_cycle;Max_cycle;Signal;HPM_P1;HPM_P2
2023/05/21 00:01:40;;;;;;;2.60;2.40;;;15.70;99.90;;;;;;4879475;29;20259;-57
2023/05/21 00:04:06;;;;;;;4.28;2.63;;;15.70;99.90;;;;;;4879369;29;20266;-57
2023/05/21 00:06:34;;;;;;;3.10;2.50;;;15.80;99.90;;;;;;4879531;29;20193;-57
2023/05/21 00:09:02;;;;;;;3.92;2.58;;;15.70;99.90;;;;;;4879423;29;20189;-57
2023/05/21 00:11:28;;;;;;;3.22;2.55;;;15.70;99.90;;;;;;4879676;29;20193;-57
2023/05/21 00:13:53;;;;;;;3.13;2.83;;;15.70;99.90;;;;;;4879570;29;20200;-57
2023/05/21 00:16:20;;;;;;;4.22;2.67;;;15.70;99.90;;;;;;4879525;29;20216;-57
2023/05/21 00:18:48;;;;;;;5.50;2.70;;;15.70;99.90;;;;;;4879389;29;20715;-57
2023/05/21 00:21:16;;;;;;;3.25;2.67;;;15.60;99.90;;;;;;4879402;29;20304;-57
2023/05/21 00:23:42;;;;;;;2.92;2.70;;;15.60;99.90;;;;;;4879214;29;20233;-57
2023/05/21 00:26:08;;;;;;;5.30;2.47;;;15.50;99.90;;;;;;4879485;29;20188;-57
2023/05/21 00:28:34;;;;;;;3.58;3.13;;;15.50;99.90;;;;;;4879699;29;20181;-57
2023/05/21 00:30:59;;;;;;;4.63;3.05;;;15.60;99.90;;;;;;4879321;29;20547;-56
2023/05/21 00:33:25;;;;;;;4.20;2.30;;;15.50;99.90;;;;;;4879358;29;20181;-57
2023/05/21 00:35:51;;;;;;;2.95;2.40;;;15.50;99.90;;;;;;4879299;29;20264;-57
2023/05/21 00:38:17;;;;;;;3.20;2.38;;;15.50;99.90;;;;;;4879122;29;20260;-57
2023/05/21 00:40:43;;;;;;;2.75;2.53;;;15.50;99.90;;;;;;4879248;29;20356;-57
2023/05/21 00:43:09;;;;;;;3.63;2.83;;;15.40;99.90;;;;;;4879251;29;20265;-57
2023/05/21 00:45:36;;;;;;;3.08;2.25;;;15.40;99.90;;;;;;4879292;29;20352;-57
2023/05/21 00:48:03;;;;;;;4.13;2.67;;;15.30;99.90;;;;;;4879190;29;20551;-57
2023/05/21 00:50:29;;;;;;;2.67;2.42;;;15.30;99.90;;;;;;4879110;29;20694;-57
2023/05/21 00:52:55;;;;;;;3.40;2.60;;;15.30;99.90;;;;;;4879129;29;20173;-57
2023/05/21 00:55:21;;;;;;;2.85;2.63;;;15.40;99.90;;;;;;4879064;29;20220;-57
2023/05/21 00:57:48;;;;;;;3.03;2.47;;;15.30;99.90;;;;;;4879970;29;20268;-57
2023/05/21 01:00:15;;;;;;;3.20;2.60;;;15.30;99.90;;;;;;4882675;29;20308;-57
2023/05/21 01:02:42;;;;;;;3.40;2.50;;;15.30;99.90;;;;;;4882723;29;20216;-57
2023/05/21 01:05:09;;;;;;;2.70;2.30;;;15.30;99.90;;;;;;4882371;29;20239;-57
2023/05/21 01:07:37;;;;;;;5.65;2.50;;;15.30;99.90;;;;;;4882548;29;20181;-57
2023/05/21 01:10:06;;;;;;;2.70;2.47;;;15.30;99.90;;;;;;4882714;29;20711;-57
2023/05/21 01:12:33;;;;;;;3.78;2.85;;;15.20;99.90;;;;;;4882712;29;20569;-57
2023/05/21 01:15:03;;;;;;;5.50;2.70;;;15.10;99.90;;;;;;4882817;29;20214;-57
2023/05/21 01:17:30;;;;;;;3.05;2.25;;;15.10;99.90;;;;;;4882400;29;20215;-57
2023/05/21 01:19:57;;;;;;;3.22;2.30;;;14.90;99.90;;;;;;4882221;29;20173;-57
2023/05/21 01:22:24;;;;;;;3.05;2.63;;;14.90;99.90;;;;;;4882478;29;20557;-57
2023/05/21 01:24:54;;;;;;;5.22;2.40;;;14.80;99.90;;;;;;4882364;29;20184;-57
2023/05/21 01:27:20;;;;;;;3.42;2.70;;;14.80;99.90;;;;;;4882325;29;20209;-57
2023/05/21 01:29:46;;;;;;;3.67;2.55;;;14.70;99.90;;;;;;4882261;29;20208;-57
2023/05/21 01:32:37;;;;;;;3.47;2.58;;;14.70;99.90;;;;;;4882188;29;20651;-59
2023/05/21 01:35:26;;;;;;;4.40;2.63;;;14.70;99.90;;;;;;4882373;29;20662;-57
2023/05/21 01:37:56;;;;;;;2.70;2.50;;;14.50;99.90;;;;;;4882063;29;20639;-57
2023/05/21 01:40:30;;;;;;;3.78;2.97;;;14.50;99.90;;;;;;4882012;29;20213;-57
2023/05/21 01:42:57;;;;;;;3.72;2.90;;;14.50;99.90;;;;;;4881940;29;20183;-57
2023/05/21 01:45:25;;;;;;;4.13;3.13;;;14.50;99.90;;;;;;4881887;29;20245;-57
2023/05/21 01:47:54;;;;;;;3.45;3.00;;;14.50;99.90;;;;;;4882050;29;20186;-57
2023/05/21 01:50:22;;;;;;;5.00;2.80;;;14.50;99.90;;;;;;4865161;29;20204;-57
2023/05/21 01:52:52;;;;;;;5.32;2.88;;;14.40;99.90;;;;;;4881913;29;20652;-56
2023/05/21 01:55:23;;;;;;;3.05;2.72;;;14.40;99.90;;;;;;4881839;29;20225;-59
2023/05/21 01:57:51;;;;;;;3.38;2.65;;;14.40;99.90;;;;;;4881973;29;20185;-57
2023/05/21 02:00:17;;;;;;;3.17;2.38;;;14.40;99.90;;;;;;4881683;29;20218;-57
2023/05/21 02:02:43;;;;;;;4.22;2.75;;;14.30;99.90;;;;;;4881539;29;20177;-57
2023/05/21 02:05:08;;;;;;;3.33;3.00;;;14.20;99.90;;;;;;4881593;29;20240;-57
2023/05/21 02:07:36;;;;;;;4.03;2.80;;;14.20;99.90;;;;;;4881595;29;20286;-57
2023/05/21 02:10:02;;;;;;;2.97;2.70;;;14.20;99.90;;;;;;4880377;29;20189;-59
2023/05/21 02:12:28;;;;;;;3.38;3.08;;;14.20;99.90;;;;;;4881694;29;20181;-57
2023/05/21 02:14:56;;;;;;;4.25;3.20;;;14.10;99.90;;;;;;4881477;29;20229;-59
2023/05/21 02:17:23;;;;;;;5.03;3.50;;;14.20;99.90;;;;;;4881443;29;20205;-59
2023/05/21 02:19:49;;;;;;;3.53;2.90;;;14.10;99.90;;;;;;4881345;29;20296;-59
2023/05/21 02:22:15;;;;;;;3.58;3.28;;;14.10;99.90;;;;;;4881265;29;20750;-57
2023/05/21 02:24:41;;;;;;;3.85;3.30;;;14.10;99.90;;;;;;4881145;29;20173;-57
2023/05/21 02:27:09;;;;;;;3.78;3.10;;;14.10;99.90;;;;;;4881419;29;20174;-59
2023/05/21 02:29:35;;;;;;;3.80;3.40;;;14.10;99.90;;;;;;4881000;29;20254;-59
2023/05/21 02:32:01;;;;;;;3.97;3.58;;;14.20;99.90;;;;;;4881275;29;20182;-59
2023/05/21 02:34:29;;;;;;;3.58;3.15;;;14.10;99.90;;;;;;4881141;29;20234;-59
2023/05/21 02:36:55;;;;;;;3.92;3.15;;;14.10;99.90;;;;;;4881100;29;20184;-59
2023/05/21 02:39:21;;;;;;;3.90;3.17;;;14.00;99.90;;;;;;4880937;29;20638;-59
2023/05/21 02:41:46;;;;;;;4.57;3.50;;;14.00;99.90;;;;;;4881061;29;20227;-59
2023/05/21 02:44:13;;;;;;;3.50;3.20;;;14.10;99.90;;;;;;4881363;29;20181;-59
2023/05/21 02:46:38;;;;;;;4.00;3.47;;;14.10;99.90;;;;;;4880966;29;20181;-59
2023/05/21 02:49:04;;;;;;;4.50;3.60;;;14.00;99.90;;;;;;4880800;29;20221;-58
2023/05/21 02:51:30;;;;;;;4.78;3.70;;;14.00;99.90;;;;;;4880741;29;20227;-59
2023/05/21 02:53:56;;;;;;;3.70;3.38;;;14.00;99.90;;;;;;4880608;29;20535;-59
2023/05/21 02:56:22;;;;;;;3.42;3.08;;;14.00;99.90;;;;;;4880919;29;20177;-58
2023/05/21 02:58:47;;;;;;;5.93;3.50;;;13.90;99.90;;;;;;4880762;29;20299;-58
2023/05/21 03:01:13;;;;;;;7.53;3.67;;;13.80;99.90;;;;;;4880576;29;20308;-58
2023/05/21 03:03:39;;;;;;;3.60;3.30;;;13.90;99.90;;;;;;4880750;29;20229;-58
2023/05/21 03:06:05;;;;;;;4.20;3.78;;;13.90;99.90;;;;;;4880557;29;20568;-58
2023/05/21 03:08:31;;;;;;;6.05;4.25;;;13.90;99.90;;;;;;4880398;29;20182;-58
2023/05/21 03:10:57;;;;;;;4.45;4.05;;;14.00;99.90;;;;;;4880285;29;20205;-58
2023/05/21 03:13:23;;;;;;;3.97;3.67;;;13.90;99.90;;;;;;4880501;29;20177;-59
2023/05/21 03:15:48;;;;;;;3.83;3.53;;;13.80;99.90;;;;;;4880493;29;20189;-59
2023/05/21 03:18:15;;;;;;;4.95;3.38;;;13.80;99.90;;;;;;4880366;29;20588;-58
2023/05/21 03:20:43;;;;;;;3.95;3.50;;;13.70;99.90;;;;;;4879914;29;20304;-59
2023/05/21 03:23:11;;;;;;;7.63;4.10;;;13.70;99.90;;;;;;4880054;29;20197;-58
2023/05/21 03:25:37;;;;;;;3.88;3.53;;;13.60;99.90;;;;;;4880345;29;20196;-59
2023/05/21 03:28:03;;;;;;;4.13;3.35;;;13.70;99.90;;;;;;4880454;29;20177;-59
2023/05/21 03:30:28;;;;;;;4.05;3.65;;;13.60;99.90;;;;;;4880064;29;20275;-58
2023/05/21 03:32:55;;;;;;;4.35;3.58;;;13.60;99.90;;;;;;4880360;29;20193;-59
2023/05/21 03:35:20;;;;;;;4.10;3.35;;;13.60;99.90;;;;;;4879983;29;20185;-59
2023/05/21 03:37:46;;;;;;;4.40;4.00;;;13.60;99.90;;;;;;4879998;29;20232;-58
2023/05/21 03:40:12;;;;;;;4.45;4.03;;;13.60;99.90;;;;;;4880077;29;20181;-58
2023/05/21 03:42:38;;;;;;;4.65;4.03;;;13.50;99.90;;;;;;4880028;29;20182;-59
2023/05/21 03:45:05;;;;;;;4.75;4.13;;;13.50;99.90;;;;;;4879900;29;20208;-59
2023/05/21 03:47:31;;;;;;;5.50;4.35;;;13.50;99.90;;;;;;4879761;29;20542;-59
2023/05/21 03:49:57;;;;;;;10.43;5.25;;;13.50;99.90;;;;;;4879732;29;20186;-59
2023/05/21 03:52:22;;;;;;;4.82;4.22;;;13.50;99.90;;;;;;4879683;29;20178;-59
2023/05/21 03:54:48;;;;;;;5.55;4.57;;;13.30;99.90;;;;;;4879903;29;20192;-58
2023/05/21 03:57:13;;;;;;;5.25;4.65;;;13.40;99.90;;;;;;4879843;29;20661;-58
2023/05/21 03:59:39;;;;;;;4.57;4.18;;;13.50;99.90;;;;;;4879633;29;20189;-59
2023/05/21 04:02:05;;;;;;;5.22;4.47;;;13.40;99.90;;;;;;4879631;29;20209;-59
2023/05/21 04:04:32;;;;;;;6.13;4.68;;;13.40;99.90;;;;;;4879835;29;20240;-59
2023/05/21 04:06:58;;;;;;;5.18;4.68;;;13.30;99.90;;;;;;4879481;29;20226;-58
2023/05/21 04:09:24;;;;;;;5.38;4.88;;;13.30;99.90;;;;;;4879631;29;20177;-58
2023/05/21 04:11:49;;;;;;;6.30;4.90;;;13.30;99.90;;;;;;4879649;29;20181;-58
2023/05/21 04:14:15;;;;;;;5.10;4.60;;;13.30;99.90;;;;;;4879571;29;20220;-59
2023/05/21 04:16:42;;;;;;;6.45;4.90;;;13.30;99.90;;;;;;4879449;29;20177;-58
2023/05/21 04:19:08;;;;;;;6.35;4.80;;;13.40;99.90;;;;;;4879345;29;20189;-58
2023/05/21 04:21:35;;;;;;;5.13;4.60;;;13.40;99.90;;;;;;4879282;29;20216;-58
2023/05/21 04:24:00;;;;;;;7.07;5.10;;;13.50;99.90;;;;;;4879513;29;20189;-58
2023/05/21 04:26:26;;;;;;;5.55;4.85;;;13.40;99.90;;;;;;4879318;29;20182;-58
2023/05/21 04:28:53;;;;;;;5.50;5.00;;;13.30;99.90;;;;;;4879337;29;20185;-58
2023/05/21 04:31:19;;;;;;;5.45;4.90;;;13.40;99.90;;;;;;4879375;29;20204;-59
2023/05/21 04:33:46;;;;;;;6.18;5.00;;;13.40;99.90;;;;;;4881828;29;20173;-58
2023/05/21 04:36:12;;;;;;;5.80;5.18;;;13.40;99.90;;;;;;4883113;29;20186;-59
2023/05/21 04:38:40;;;;;;;6.45;4.65;;;13.40;99.90;;;;;;4883324;29;20193;-58
2023/05/21 04:41:06;;;;;;;7.25;5.15;;;13.50;99.90;;;;;;4883194;29;20640;-58
2023/05/21 04:43:31;;;;;;;5.57;4.80;;;13.50;99.90;;;;;;4883095;29;20212;-59
2023/05/21 04:45:57;;;;;;;5.85;4.95;;;13.50;99.90;;;;;;4882707;29;20181;-58
2023/05/21 04:48:25;;;;;;;6.35;5.00;;;13.50;99.90;;;;;;4882871;29;20189;-59
2023/05/21 04:50:52;;;;;;;6.57;4.85;;;13.60;99.90;;;;;;4883081;29;20267;-58
2023/05/21 04:53:18;;;;;;;6.93;4.97;;;13.60;99.90;;;;;;4882974;29;20196;-58
2023/05/21 04:55:43;;;;;;;6.07;5.47;;;13.60;99.90;;;;;;4882974;29;20174;-59
2023/05/21 04:58:10;;;;;;;7.20;4.80;;;13.70;99.90;;;;;;4882868;29;20237;-58
2023/05/21 05:00:39;;;;;;;7.22;5.15;;;13.70;99.90;;;;;;4882686;29;20281;-59
2023/05/21 05:03:04;;;;;;;5.60;5.00;;;13.70;99.90;;;;;;4882534;29;20183;-58
2023/05/21 05:05:30;;;;;;;5.63;5.13;;;13.80;99.90;;;;;;4882899;29;20272;-59
2023/05/21 05:07:57;;;;;;;6.32;5.00;;;13.80;99.90;;;;;;4882809;29;20225;-58
2023/05/21 05:10:22;;;;;;;7.03;5.47;;;13.80;99.90;;;;;;4882708;29;20268;-58
2023/05/21 05:12:48;;;;;;;5.75;5.25;;;13.90;99.90;;;;;;4865894;29;20309;-58
2023/05/21 05:15:17;;;;;;;8.20;5.00;;;13.90;99.90;;;;;;4882607;29;20185;-58
2023/05/21 05:17:43;;;;;;;7.13;5.00;;;13.90;99.90;;;;;;4866049;29;20182;-58
2023/05/21 05:20:10;;;;;;;5.85;5.10;;;14.00;99.90;;;;;;4882306;29;20260;-58
2023/05/21 05:22:35;;;;;;;5.85;5.00;;;14.10;99.90;;;;;;4882533;29;20671;-58
2023/05/21 05:25:01;;;;;;;5.45;4.95;;;14.10;99.90;;;;;;4882448;29;20181;-58
2023/05/21 05:27:27;;;;;;;6.68;4.72;;;14.20;99.90;;;;;;4882338;29;20173;-58
2023/05/21 05:29:52;;;;;;;6.13;4.68;;;14.20;99.90;;;;;;4882280;29;20635;-59
2023/05/21 05:32:18;;;;;;;5.45;4.68;;;14.30;99.90;;;;;;4882128;29;20317;-59
2023/05/21 05:34:45;;;;;;;8.20;4.70;;;14.30;99.90;;;;;;4882636;29;20186;-58
2023/05/21 05:37:11;;;;;;;4.95;4.40;;;14.40;99.90;;;;;;4882279;29;20182;-58
2023/05/21 05:39:36;;;;;;;6.88;4.85;;;14.50;99.90;;;;;;4882226;29;20225;-58
2023/05/21 05:42:02;;;;;;;5.80;4.78;;;14.60;99.90;;;;;;4882088;29;20318;-58
2023/05/21 05:44:28;;;;;;;5.72;5.00;;;14.60;99.90;;;;;;4882032;29;20286;-58
2023/05/21 05:46:54;;;;;;;6.07;5.10;;;14.70;99.90;;;;;;4881884;29;20671;-58
2023/05/21 05:49:19;;;;;;;5.70;5.00;;;14.80;99.90;;;;;;4882110;29;20189;-58
2023/05/21 05:51:45;;;;;;;5.55;5.00;;;14.80;99.90;;;;;;4882150;29;20185;-58
2023/05/21 05:54:11;;;;;;;7.10;5.18;;;14.90;99.90;;;;;;4881955;29;20273;-59
2023/05/21 05:56:36;;;;;;;6.28;4.78;;;14.90;99.90;;;;;;4881892;29;20272;-58
2023/05/21 05:59:02;;;;;;;5.85;4.63;;;14.90;99.90;;;;;;4881701;29;20186;-58
2023/05/21 06:01:27;;;;;;;5.45;4.95;;;15.00;99.90;;;;;;4881662;29;20251;-58
2023/05/21 06:03:53;;;;;;;5.47;4.97;;;15.10;99.90;;;;;;4881658;29;20369;-58
2023/05/21 06:06:19;;;;;;;6.07;4.95;;;15.20;99.90;;;;;;4881691;29;20196;-59
2023/05/21 06:08:45;;;;;;;5.55;4.80;;;15.30;99.90;;;;;;4881664;29;20213;-58
2023/05/21 06:11:10;;;;;;;6.28;5.28;;;15.50;99.90;;;;;;4881642;29;20184;-58
2023/05/21 06:13:36;;;;;;;5.75;4.82;;;15.50;99.90;;;;;;4881470;29;20539;-58
2023/05/21 06:16:02;;;;;;;9.40;5.43;;;15.60;99.90;;;;;;4881420;29;20192;-58
2023/05/21 06:18:28;;;;;;;5.78;5.10;;;15.60;99.90;;;;;;4881760;29;20186;-58
2023/05/21 06:20:54;;;;;;;5.57;5.07;;;15.70;99.90;;;;;;4881262;29;20220;-59
2023/05/21 06:23:20;;;;;;;7.55;5.25;;;15.70;99.90;;;;;;4881370;29;20188;-58
2023/05/21 06:25:45;;;;;;;6.25;5.10;;;15.70;99.90;;;;;;4881445;29;20257;-59
2023/05/21 06:28:11;;;;;;;6.32;4.95;;;15.70;99.90;;;;;;4881170;29;20246;-59
2023/05/21 06:30:37;;;;;;;5.97;5.38;;;15.80;99.90;;;;;;4881125;29;20185;-58
2023/05/21 06:33:02;;;;;;;5.97;5.32;;;15.80;99.90;;;;;;4881098;29;20184;-58
2023/05/21 06:35:28;;;;;;;6.15;5.35;;;15.90;99.90;;;;;;4881305;29;20208;-58
2023/05/21 06:37:53;;;;;;;5.88;5.28;;;16.00;99.90;;;;;;4881239;29;20513;-59
2023/05/21 06:40:19;;;;;;;5.80;5.20;;;16.10;99.90;;;;;;4881129;29;20706;-58
2023/05/21 06:42:45;;;;;;;6.78;5.47;;;16.10;99.90;;;;;;4881005;29;20649;-56
2023/05/21 06:45:11;;;;;;;11.45;6.50;;;16.20;99.90;;;;;;4881009;29;20214;-58
2023/05/21 06:47:36;;;;;;;7.50;5.75;;;16.40;99.90;;;;;;4881087;29;20249;-58
2023/05/21 06:50:02;;;;;;;6.05;5.45;;;16.50;99.90;;;;;;4880782;29;20635;-58
2023/05/21 06:52:28;;;;;;;7.15;5.70;;;16.40;99.90;;;;;;4880833;29;20186;-58
2023/05/21 06:54:54;;;;;;;7.07;5.28;;;16.60;99.90;;;;;;4880644;29;20173;-58
2023/05/21 06:57:19;;;;;;;6.95;5.82;;;16.50;99.90;;;;;;4880385;29;20298;-58
2023/05/21 06:59:45;;;;;;;6.30;5.70;;;16.40;99.90;;;;;;4880597;29;20636;-58
2023/05/21 07:02:11;;;;;;;7.05;5.93;;;16.60;99.90;;;;;;4880748;29;20291;-58
2023/05/21 07:04:36;;;;;;;6.88;6.28;;;16.80;99.90;;;;;;4880884;29;20233;-58
2023/05/21 07:07:05;;;;;;;7.20;5.70;;;16.80;99.90;;;;;;4880627;29;20181;-58
2023/05/21 07:09:30;;;;;;;6.63;5.93;;;17.00;99.90;;;;;;4880510;29;20181;-58
2023/05/21 07:11:56;;;;;;;7.60;6.22;;;16.90;99.90;;;;;;4880429;29;20192;-58
2023/05/21 07:14:25;;;;;;;7.07;6.38;;;16.90;99.90;;;;;;4880555;29;20186;-59
2023/05/21 07:16:51;;;;;;;7.03;6.43;;;16.80;99.90;;;;;;4880220;29;20178;-58
2023/05/21 07:19:16;;;;;;;6.30;5.68;;;16.90;99.90;;;;;;4880469;29;20269;-58
2023/05/21 07:21:42;;;;;;;7.13;6.38;;;16.90;99.90;;;;;;4880187;29;20248;-58
2023/05/21 07:24:07;;;;;;;6.72;6.05;;;16.90;99.90;;;;;;4880612;29;20259;-58
2023/05/21 07:26:33;;;;;;;7.20;6.10;;;17.10;99.90;;;;;;4880283;29;20228;-58
2023/05/21 07:28:59;;;;;;;7.03;6.32;;;17.30;99.90;;;;;;4880125;29;20284;-58
2023/05/21 07:31:24;;;;;;;6.72;5.80;;;17.30;99.90;;;;;;4880030;29;20190;-59
2023/05/21 07:33:50;;;;;;;6.20;5.60;;;17.30;99.90;;;;;;4880250;29;20177;-58
2023/05/21 07:36:16;;;;;;;6.47;5.93;;;17.50;99.90;;;;;;4880173;29;20177;-58
2023/05/21 07:38:46;;;;;;;8.07;7.07;;;17.60;99.90;;;;;;4880076;29;20178;-58
2023/05/21 07:41:11;;;;;;;8.55;6.45;;;17.70;99.90;;;;;;4879948;29;20571;-58
2023/05/21 07:43:37;;;;;;;7.90;5.78;;;17.80;99.90;;;;;;4879813;29;20182;-59
2023/05/21 07:46:03;;;;;;;7.32;6.63;;;17.80;99.90;;;;;;4880095;29;20583;-59
2023/05/21 07:48:29;;;;;;;6.93;6.25;;;17.70;99.90;;;;;;4880027;29;20193;-58
2023/05/21 07:50:56;;;;;;;7.50;6.68;;;17.80;99.90;;;;;;4880150;29;20524;-59
2023/05/21 07:53:22;;;;;;;7.15;6.45;;;17.90;99.90;;;;;;4879523;29;20177;-58
2023/05/21 07:55:48;;;;;;;7.50;6.75;;;17.90;99.90;;;;;;4878011;29;20185;-59
2023/05/21 07:58:18;;;;;;;7.50;6.10;;;17.90;99.90;;;;;;4877553;29;20213;-59
2023/05/21 08:00:46;;;;;;;6.75;6.15;;;17.90;99.90;;;;;;4877742;29;20217;-59
2023/05/21 08:03:15;;;;;;;7.28;6.57;;;17.90;99.90;;;;;;4877372;29;20317;-58
2023/05/21 08:05:48;;;;;;;6.65;6.05;;;18.00;99.90;;;;;;4869284;29;20220;-57
2023/05/21 08:08:16;;;;;;;6.45;5.57;;;18.10;99.90;;;;;;4868883;29;20174;-56
2023/05/21 08:10:41;;;;;;;9.55;6.30;;;18.30;99.90;;;;;;4870693;29;20185;-58
2023/05/21 08:13:07;;;;;;;8.23;6.60;;;18.40;99.90;;;;;;4869598;29;20230;-56
2023/05/21 08:15:32;;;;;;;7.22;6.43;;;18.40;99.90;;;;;;4869163;29;20237;-58
2023/05/21 08:17:58;;;;;;;7.25;6.55;;;18.30;99.90;;;;;;4860936;29;20185;-58
2023/05/21 08:20:25;;;;;;;7.53;6.78;;;18.30;99.90;;;;;;4860708;29;20189;-58
2023/05/21 08:22:52;;;;;;;8.40;6.70;;;18.40;99.90;;;;;;4860974;29;20208;-58
2023/05/21 08:25:18;;;;;;;6.90;6.20;;;18.50;99.90;;;;;;4860769;29;20185;-58
2023/05/21 08:27:43;;;;;;;6.32;5.72;;;18.60;99.90;;;;;;4860693;29;20182;-58
2023/05/21 08:30:10;;;;;;;7.85;6.45;;;18.60;99.90;;;;;;4860964;29;20178;-59
2023/05/21 08:32:36;;;;;;;8.77;6.18;;;18.70;99.90;;;;;;4860817;29;20266;-58
2023/05/21 08:35:02;;;;;;;7.30;6.35;;;18.70;99.90;;;;;;4860731;29;20219;-59
2023/05/21 08:37:28;;;;;;;6.93;6.22;;;19.00;99.90;;;;;;4860711;29;20193;-59
2023/05/21 08:39:53;;;;;;;7.57;6.50;;;19.00;99.90;;;;;;4860615;29;20179;-58
2023/05/21 08:42:39;;;;;;;8.13;6.13;;;18.90;99.90;;;;;;4860689;29;20218;-58
2023/05/21 08:45:06;;;;;;;10.05;6.55;;;19.10;99.90;;;;;;4857918;29;20189;-59
2023/05/21 08:47:35;;;;;;;9.38;6.63;;;19.10;99.90;;;;;;4859570;29;20263;-58
2023/05/21 08:50:03;;;;;;;7.70;6.90;;;19.00;99.90;;;;;;4860686;29;20286;-59
2023/05/21 08:52:31;;;;;;;7.72;6.93;;;19.10;99.90;;;;;;4860505;29;20185;-58
2023/05/21 08:54:57;;;;;;;9.52;8.02;;;19.00;99.90;;;;;;4860785;29;20193;-58
2023/05/21 08:57:24;;;;;;;10.15;8.50;;;19.10;99.90;;;;;;4863448;29;20182;-58
2023/05/21 08:59:50;;;;;;;11.68;8.68;;;19.20;99.90;;;;;;4869630;29;20181;-59
2023/05/21 09:02:17;;;;;;;23.40;11.48;;;19.30;99.90;;;;;;4862634;29;20288;-58
2023/05/21 09:04:48;;;;;;;16.30;10.50;;;19.50;99.90;;;;;;4860230;29;20704;-56
2023/05/21 09:07:14;;;;;;;15.57;10.73;;;19.60;99.90;;;;;;4860519;29;20178;-57
2023/05/21 09:10:08;;;;;;;11.60;8.73;;;19.70;99.90;;;;;;4860600;29;20276;-58
2023/05/21 09:12:34;;;;;;;8.93;7.70;;;19.60;99.90;;;;;;4850697;29;20198;-56
2023/05/21 09:15:00;;;;;;;9.32;7.22;;;19.50;99.90;;;;;;4860497;29;20296;-57
2023/05/21 09:17:26;;;;;;;8.40;7.50;;;19.60;99.90;;;;;;4860329;29;20234;-56
2023/05/21 09:20:17;;;;;;;7.60;6.57;;;19.70;99.90;;;;;;4862701;29;20174;-56
2023/05/21 09:22:44;;;;;;;9.20;7.35;;;19.80;99.90;;;;;;4863963;29;20208;-56
2023/05/21 09:25:11;;;;;;;9.95;7.80;;;19.90;99.90;;;;;;4863871;29;20256;-56
2023/05/21 09:27:38;;;;;;;8.60;7.50;;;19.80;99.90;;;;;;4863749;29;20182;-56
2023/05/21 09:30:08;;;;;;;8.52;7.55;;;19.80;99.90;;;;;;4863889;29;20182;-56
2023/05/21 09:32:34;;;;;;;8.55;7.22;;;19.80;99.90;;;;;;4863838;29;20193;-58
2023/05/21 09:35:10;;;;;;;8.77;7.35;;;19.80;99.90;;;;;;4863771;29;20182;-59
2023/05/21 09:37:43;;;;;;;9.50;7.22;;;19.70;99.90;;;;;;4863766;29;20202;-58
2023/05/21 09:40:16;;;;;;;8.15;7.35;;;19.70;99.90;;;;;;4863455;29;20195;-59
2023/05/21 09:42:51;;;;;;;9.43;7.65;;;19.70;99.90;;;;;;4863519;29;20675;-58
2023/05/21 09:45:21;;;;;;;8.35;7.05;;;19.90;99.90;;;;;;4863662;29;20212;-58
2023/05/21 09:47:48;;;;;;;8.15;7.32;;;20.20;99.90;;;;;;4863701;29;20178;-59
2023/05/21 09:50:22;;;;;;;9.20;7.75;;;20.30;99.90;;;;;;4863356;29;20175;-59
2023/05/21 09:52:51;;;;;;;12.18;7.63;;;20.30;99.90;;;;;;4863427;29;20174;-60
2023/05/21 09:55:18;;;;;;;8.45;7.63;;;20.30;99.90;;;;;;4863097;29;20189;-60
2023/05/21 09:57:45;;;;;;;9.20;7.60;;;20.30;99.90;;;;;;4863332;29;20728;-60
2023/05/21 10:00:20;;;;;;;8.95;7.93;;;20.30;99.90;;;;;;4863322;29;20174;-60
2023/05/21 10:02:47;;;;;;;8.13;7.30;;;20.40;99.90;;;;;;4863189;29;20207;-57
2023/05/21 10:05:16;;;;;;;8.40;7.57;;;20.50;99.90;;;;;;4863090;29;20730;-57
2023/05/21 10:07:52;;;;;;;10.48;8.27;;;20.60;99.90;;;;;;4843317;29;20186;-57
2023/05/21 10:10:21;;;;;;;8.80;7.90;;;20.50;99.90;;;;;;4860604;29;20711;-57
2023/05/21 10:12:53;;;;;;;10.07;8.38;;;20.40;99.90;;;;;;4863049;29;20642;-57
2023/05/21 10:15:22;;;;;;;9.15;7.35;;;20.30;99.90;;;;;;4862943;29;20318;-57
2023/05/21 10:17:48;;;;;;;9.90;8.25;;;20.60;99.90;;;;;;4862863;29;20182;-58
2023/05/21 10:20:15;;;;;;;9.25;8.35;;;20.90;99.90;;;;;;4862733;29;20190;-57
2023/05/21 10:22:41;;;;;;;9.63;8.40;;;21.00;99.90;;;;;;4862952;29;20192;-57
2023/05/21 10:25:07;;;;;;;9.50;7.68;;;21.00;99.90;;;;;;4862695;29;20185;-57
2023/05/21 10:27:35;;;;;;;9.07;8.05;;;20.80;99.90;;;;;;4862742;29;20185;-58
2023/05/21 10:30:01;;;;;;;8.40;7.57;;;20.60;99.90;;;;;;4862294;29;20265;-58
2023/05/21 10:32:27;;;;;;;9.32;8.32;;;20.70;99.90;;;;;;4862482;29;20217;-57
2023/05/21 10:34:53;;;;;;;9.70;7.97;;;20.80;99.90;;;;;;4862549;29;20550;-58
2023/05/21 10:37:23;;;;;;;8.55;7.75;;;20.90;99.90;;;;;;4846051;29;20181;-57
2023/05/21 10:39:49;;;;;;;8.82;7.78;;;21.00;99.90;;;;;;4862524;29;20190;-57
2023/05/21 10:42:40;;;;;;;9.55;8.50;;;21.20;99.90;;;;;;4862360;29;20225;-57
2023/05/21 10:45:22;;;;;;;8.98;8.10;;;21.40;99.90;;;;;;4849484;29;20246;-57
2023/05/21 10:48:08;;;;;;;11.73;8.55;;;21.30;99.90;;;;;;4862582;29;20198;-57
2023/05/21 10:50:57;;;;;;;10.57;9.15;;;21.40;99.90;;;;;;4862374;29;20712;-57
2023/05/21 10:53:40;;;;;;;11.45;8.15;;;21.60;99.90;;;;;;4844072;29;20206;-57
2023/05/21 10:56:11;;;;;;;10.23;8.43;;;21.60;99.90;;;;;;4862375;29;20182;-57
2023/05/21 10:58:42;;;;;;;12.40;9.05;;;21.50;99.90;;;;;;4862250;29;20179;-57
2023/05/21 11:01:09;;;;;;;9.68;8.40;;;21.40;99.90;;;;;;4861936;29;20403;-57
2023/05/21 11:03:36;;;;;;;9.05;7.80;;;21.60;99.90;;;;;;4862258;29;20245;-57
2023/05/21 11:06:02;;;;;;;10.98;8.07;;;21.80;99.90;;;;;;4845055;29;20639;-57
2023/05/21 11:08:37;;;;;;;12.98;9.40;;;22.00;99.90;;;;;;4862123;29;20238;-57
2023/05/21 11:11:04;;;;;;;10.43;9.10;;;22.00;99.90;;;;;;4861760;29;20242;-57
2023/05/21 11:13:49;;;;;;;10.77;8.85;;;21.80;99.90;;;;;;4861965;29;20688;-57
2023/05/21 11:16:16;;;;;;;9.38;8.48;;;21.60;99.90;;;;;;4861568;29;20265;-57
2023/05/21 11:18:42;;;;;;;10.00;8.77;;;21.40;99.90;;;;;;4861621;29;20649;-59
2023/05/21 11:21:16;;;;;;;9.65;8.65;;;21.10;99.90;;;;;;4861836;29;20214;-59
2023/05/21 11:23:51;;;;;;;12.02;9.65;;;21.00;99.90;;;;;;4862040;29;20196;-59
2023/05/21 11:26:18;;;;;;;10.57;8.68;;;21.00;99.90;;;;;;4861598;29;20590;-59
2023/05/21 11:28:43;;;;;;;9.55;8.60;;;20.90;99.90;;;;;;4863044;29;20231;-57
2023/05/21 11:31:25;;;;;;;10.45;8.73;;;21.10;99.90;;;;;;4879810;29;20193;-57
2023/05/21 11:34:10;;;;;;;10.43;9.07;;;21.10;99.90;;;;;;4879881;29;20760;-57
2023/05/21 11:36:46;;;;;;;9.88;8.43;;;21.10;99.90;;;;;;4879946;29;20177;-57
2023/05/21 11:39:22;;;;;;;10.50;9.43;;;21.10;99.90;;;;;;4880158;29;20177;-57
2023/05/21 11:42:00;;;;;;;10.02;8.52;;;21.00;99.90;;;;;;4880015;29;20300;-57
2023/05/21 11:44:47;;;;;;;9.80;8.80;;;20.90;99.90;;;;;;4879959;29;20216;-57
2023/05/21 11:47:17;;;;;;;11.20;9.38;;;20.90;99.90;;;;;;4879907;29;20182;-57
2023/05/21 11:49:43;;;;;;;11.13;9.35;;;20.90;99.90;;;;;;4879716;29;20205;-57
2023/05/21 11:52:11;;;;;;;10.15;9.15;;;20.80;99.90;;;;;;4879736;29;20189;-57
2023/05/21 11:54:49;;;;;;;10.70;9.60;;;20.70;99.90;;;;;;4872217;29;20181;-57
2023/05/21 11:57:16;;;;;;;9.93;8.70;;;20.70;99.90;;;;;;4879598;29;20228;-59
2023/05/21 11:59:42;;;;;;;9.95;8.77;;;20.60;99.90;;;;;;4879137;29;20174;-59
2023/05/21 12:02:07;;;;;;;11.45;9.18;;;20.80;99.90;;;;;;4879373;29;20563;-60
2023/05/21 12:04:37;;;;;;;10.23;9.23;;;21.00;99.90;;;;;;4879746;29;20217;-59
2023/05/21 12:07:07;;;;;;;11.25;10.13;;;21.10;99.90;;;;;;4879807;29;20637;-57
2023/05/21 12:09:44;;;;;;;10.80;9.25;;;21.00;99.90;;;;;;4879489;29;20246;-57
2023/05/21 12:12:12;;;;;;;11.75;10.48;;;21.20;99.90;;;;;;4878947;29;20189;-57
2023/05/21 12:14:39;;;;;;;10.80;9.63;;;21.00;99.90;;;;;;4872165;29;20538;-57
2023/05/21 12:17:09;;;;;;;10.18;9.23;;;21.10;99.90;;;;;;4879408;29;20173;-57
2023/05/21 12:19:36;;;;;;;11.32;9.60;;;21.10;99.90;;;;;;4879545;29;20269;-57
2023/05/21 12:22:06;;;;;;;12.35;9.80;;;21.10;99.90;;;;;;4879499;29;20208;-57
2023/05/21 12:24:32;;;;;;;10.98;9.90;;;21.00;99.90;;;;;;4863007;29;20177;-59
2023/05/21 12:27:00;;;;;;;13.25;9.50;;;21.00;99.90;;;;;;4879610;29;20180;-60
2023/05/21 12:29:30;;;;;;;10.40;9.40;;;21.10;99.90;;;;;;4879290;29;20182;-59
2023/05/21 12:32:00;;;;;;;10.98;9.82;;;21.20;99.90;;;;;;4862836;29;20520;-58
2023/05/21 12:34:47;;;;;;;10.20;9.02;;;21.20;99.90;;;;;;4879591;29;20177;-56
2023/05/21 12:37:30;;;;;;;12.15;9.50;;;21.20;99.90;;;;;;4879396;29;20188;-57
2023/05/21 12:39:57;;;;;;;11.60;8.73;;;21.10;99.90;;;;;;4879187;29;20177;-56
2023/05/21 12:42:33;;;;;;;9.63;8.63;;;21.50;99.90;;;;;;4879381;29;20217;-57
2023/05/21 12:44:59;;;;;;;13.05;9.45;;;21.60;99.90;;;;;;4879617;29;20510;-57
2023/05/21 12:47:26;;;;;;;9.23;8.32;;;21.60;99.90;;;;;;4879318;29;20178;-57
2023/05/21 12:50:00;;;;;;;11.25;9.00;;;21.50;99.90;;;;;;4879318;29;20209;-57